Terminal Aerodrome Forecast
Issued by NWS Kansas City/Pleasant Hill, MO

Home | Current Version | Previous Version | Text Only | Print | Product List | Glossary On
Versions: 1 2 3 4 5 6 7 8 9 10 11 12 13 14
000
FTUS43 KEAX 131127
TAFMCI
TAF
KMCI 131127Z 1312/1412 23014KT P6SM FEW250
     FM131400 27016KT P6SM SCT100
     FM131700 31016G27KT P6SM SCT040
     FM132300 33014KT P6SM BKN035=

USA.gov is the U.S. government's official web portal to all federal, state and local government web resources and services.